sensor_id;sensor_type;location;lat;lon;timestamp;P1;durP1;ratioP1;P2;durP2;ratioP2
60819;SDS011;46641;48.904;9.126;2023-02-28T00:03:35;2.20;;;2.10;;
60819;SDS011;46641;48.904;9.126;2023-02-28T00:08:25;3.00;;;2.80;;
60819;SDS011;46641;48.904;9.126;2023-02-28T00:13:16;2.63;;;2.43;;
60819;SDS011;46641;48.904;9.126;2023-02-28T00:18:07;2.90;;;2.70;;
60819;SDS011;46641;48.904;9.126;2023-02-28T00:22:57;2.63;;;2.42;;
60819;SDS011;46641;48.904;9.126;2023-02-28T00:27:47;3.73;;;3.40;;
60819;SDS011;46641;48.904;9.126;2023-02-28T00:32:38;2.90;;;2.70;;
60819;SDS011;46641;48.904;9.126;2023-02-28T00:37:28;4.60;;;2.70;;
60819;SDS011;46641;48.904;9.126;2023-02-28T00:42:19;2.70;;;2.50;;
60819;SDS011;46641;48.904;9.126;2023-02-28T00:47:09;3.60;;;2.50;;
60819;SDS011;46641;48.904;9.126;2023-02-28T00:52:00;2.93;;;2.70;;
60819;SDS011;46641;48.904;9.126;2023-02-28T00:56:50;5.00;;;2.63;;
60819;SDS011;46641;48.904;9.126;2023-02-28T01:01:41;5.05;;;3.03;;
60819;SDS011;46641;48.904;9.126;2023-02-28T01:06:32;3.37;;;3.07;;
60819;SDS011;46641;48.904;9.126;2023-02-28T01:11:22;3.50;;;3.03;;
60819;SDS011;46641;48.904;9.126;2023-02-28T01:16:13;3.10;;;2.73;;
60819;SDS011;46641;48.904;9.126;2023-02-28T01:21:04;3.50;;;2.93;;
60819;SDS011;46641;48.904;9.126;2023-02-28T01:25:56;4.03;;;3.13;;
60819;SDS011;46641;48.904;9.126;2023-02-28T01:30:50;3.50;;;3.20;;
60819;SDS011;46641;48.904;9.126;2023-02-28T01:35:40;3.70;;;2.80;;
60819;SDS011;46641;48.904;9.126;2023-02-28T01:40:31;3.80;;;3.50;;
60819;SDS011;46641;48.904;9.126;2023-02-28T01:45:23;3.00;;;2.70;;
60819;SDS011;46641;48.904;9.126;2023-02-28T01:50:19;3.03;;;2.80;;
60819;SDS011;46641;48.904;9.126;2023-02-28T01:55:12;3.73;;;3.30;;
60819;SDS011;46641;48.904;9.126;2023-02-28T02:00:08;3.87;;;2.80;;
60819;SDS011;46641;48.904;9.126;2023-02-28T02:05:08;2.87;;;2.67;;
60819;SDS011;46641;48.904;9.126;2023-02-28T02:10:03;5.30;;;3.17;;
60819;SDS011;46641;48.904;9.126;2023-02-28T02:15:22;3.23;;;2.93;;
60819;SDS011;46641;48.904;9.126;2023-02-28T02:25:54;3.47;;;3.20;;
60819;SDS011;46641;48.904;9.126;2023-02-28T02:41:24;3.37;;;3.07;;
60819;SDS011;46641;48.904;9.126;2023-02-28T02:46:27;3.30;;;3.07;;
60819;SDS011;46641;48.904;9.126;2023-02-28T02:51:23;3.67;;;3.37;;
60819;SDS011;46641;48.904;9.126;2023-02-28T02:56:17;3.93;;;3.47;;
60819;SDS011;46641;48.904;9.126;2023-02-28T03:01:18;4.00;;;3.40;;
60819;SDS011;46641;48.904;9.126;2023-02-28T03:06:17;3.60;;;3.30;;
60819;SDS011;46641;48.904;9.126;2023-02-28T03:11:11;3.50;;;3.20;;
60819;SDS011;46641;48.904;9.126;2023-02-28T03:22:11;4.00;;;3.60;;
60819;SDS011;46641;48.904;9.126;2023-02-28T03:26:51;4.33;;;3.43;;
60819;SDS011;46641;48.904;9.126;2023-02-28T03:36:45;4.97;;;3.40;;
60819;SDS011;46641;48.904;9.126;2023-02-28T03:41:45;4.70;;;3.73;;
60819;SDS011;46641;48.904;9.126;2023-02-28T03:46:41;4.37;;;3.73;;
60819;SDS011;46641;48.904;9.126;2023-02-28T03:51:45;3.40;;;3.10;;
60819;SDS011;46641;48.904;9.126;2023-02-28T03:56:39;3.87;;;3.50;;
60819;SDS011;46641;48.904;9.126;2023-02-28T04:01:38;3.63;;;3.20;;
60819;SDS011;46641;48.904;9.126;2023-02-28T04:06:32;5.37;;;3.53;;
60819;SDS011;46641;48.904;9.126;2023-02-28T04:11:27;4.03;;;3.63;;
60819;SDS011;46641;48.904;9.126;2023-02-28T04:16:24;3.40;;;3.10;;
60819;SDS011;46641;48.904;9.126;2023-02-28T04:21:15;4.80;;;3.70;;
60819;SDS011;46641;48.904;9.126;2023-02-28T04:26:05;4.50;;;4.10;;
60819;SDS011;46641;48.904;9.126;2023-02-28T04:30:56;4.57;;;4.17;;
60819;SDS011;46641;48.904;9.126;2023-02-28T04:35:47;4.53;;;4.07;;
60819;SDS011;46641;48.904;9.126;2023-02-28T04:40:38;5.03;;;4.38;;
60819;SDS011;46641;48.904;9.126;2023-02-28T04:45:28;4.60;;;4.07;;
60819;SDS011;46641;48.904;9.126;2023-02-28T04:50:22;5.33;;;4.17;;
60819;SDS011;46641;48.904;9.126;2023-02-28T04:55:12;5.50;;;4.90;;
60819;SDS011;46641;48.904;9.126;2023-02-28T05:00:02;4.47;;;3.93;;
60819;SDS011;46641;48.904;9.126;2023-02-28T05:04:56;5.63;;;4.57;;
60819;SDS011;46641;48.904;9.126;2023-02-28T05:09:46;4.47;;;3.90;;
60819;SDS011;46641;48.904;9.126;2023-02-28T05:14:36;5.03;;;4.53;;
60819;SDS011;46641;48.904;9.126;2023-02-28T05:19:27;5.03;;;4.18;;
60819;SDS011;46641;48.904;9.126;2023-02-28T05:24:17;5.70;;;4.80;;
60819;SDS011;46641;48.904;9.126;2023-02-28T05:29:12;5.50;;;5.00;;
60819;SDS011;46641;48.904;9.126;2023-02-28T05:34:02;6.22;;;4.78;;
60819;SDS011;46641;48.904;9.126;2023-02-28T05:38:55;4.83;;;4.40;;
60819;SDS011;46641;48.904;9.126;2023-02-28T05:43:46;4.90;;;4.50;;
60819;SDS011;46641;48.904;9.126;2023-02-28T05:48:37;5.50;;;4.53;;
60819;SDS011;46641;48.904;9.126;2023-02-28T05:53:30;6.93;;;6.23;;
60819;SDS011;46641;48.904;9.126;2023-02-28T05:58:21;5.60;;;5.10;;
60819;SDS011;46641;48.904;9.126;2023-02-28T06:03:12;5.23;;;4.73;;
60819;SDS011;46641;48.904;9.126;2023-02-28T06:08:02;5.90;;;4.85;;
60819;SDS011;46641;48.904;9.126;2023-02-28T06:12:52;6.63;;;6.00;;
60819;SDS011;46641;48.904;9.126;2023-02-28T06:17:43;6.45;;;5.40;;
60819;SDS011;46641;48.904;9.126;2023-02-28T06:22:36;5.60;;;4.77;;
60819;SDS011;46641;48.904;9.126;2023-02-28T06:27:27;6.17;;;5.57;;
60819;SDS011;46641;48.904;9.126;2023-02-28T06:32:17;6.37;;;4.87;;
60819;SDS011;46641;48.904;9.126;2023-02-28T06:37:07;5.63;;;4.72;;
60819;SDS011;46641;48.904;9.126;2023-02-28T06:41:58;6.57;;;5.93;;
60819;SDS011;46641;48.904;9.126;2023-02-28T06:46:48;6.53;;;5.40;;
60819;SDS011;46641;48.904;9.126;2023-02-28T06:51:39;6.37;;;5.50;;
60819;SDS011;46641;48.904;9.126;2023-02-28T06:56:31;6.30;;;5.63;;
60819;SDS011;46641;48.904;9.126;2023-02-28T07:01:21;7.00;;;5.43;;
60819;SDS011;46641;48.904;9.126;2023-02-28T07:06:15;5.90;;;5.30;;
60819;SDS011;46641;48.904;9.126;2023-02-28T07:11:07;8.80;;;5.93;;
60819;SDS011;46641;48.904;9.126;2023-02-28T07:15:59;5.83;;;4.87;;
60819;SDS011;46641;48.904;9.126;2023-02-28T07:20:51;6.63;;;5.93;;
60819;SDS011;46641;48.904;9.126;2023-02-28T07:25:41;6.40;;;4.60;;
60819;SDS011;46641;48.904;9.126;2023-02-28T07:30:32;8.13;;;6.23;;
60819;SDS011;46641;48.904;9.126;2023-02-28T07:35:22;7.97;;;6.75;;
60819;SDS011;46641;48.904;9.126;2023-02-28T07:40:13;7.40;;;6.70;;
60819;SDS011;46641;48.904;9.126;2023-02-28T07:45:04;8.10;;;6.47;;
60819;SDS011;46641;48.904;9.126;2023-02-28T07:49:55;7.47;;;6.17;;
60819;SDS011;46641;48.904;9.126;2023-02-28T07:54:46;10.23;;;8.07;;
60819;SDS011;46641;48.904;9.126;2023-02-28T07:59:36;6.13;;;5.40;;
60819;SDS011;46641;48.904;9.126;2023-02-28T08:04:26;7.67;;;6.97;;
60819;SDS011;46641;48.904;9.126;2023-02-28T08:09:17;8.30;;;7.23;;
60819;SDS011;46641;48.904;9.126;2023-02-28T08:14:07;8.17;;;5.17;;
60819;SDS011;46641;48.904;9.126;2023-02-28T08:18:57;8.13;;;7.32;;
60819;SDS011;46641;48.904;9.126;2023-02-28T08:23:48;8.07;;;7.27;;
60819;SDS011;46641;48.904;9.126;2023-02-28T08:28:40;8.00;;;6.67;;
60819;SDS011;46641;48.904;9.126;2023-02-28T08:33:31;7.43;;;6.17;;
60819;SDS011;46641;48.904;9.126;2023-02-28T08:38:21;10.20;;;7.30;;
60819;SDS011;46641;48.904;9.126;2023-02-28T08:43:12;8.53;;;7.47;;
60819;SDS011;46641;48.904;9.126;2023-02-28T08:48:03;8.32;;;7.03;;
60819;SDS011;46641;48.904;9.126;2023-02-28T08:52:53;12.30;;;9.20;;
60819;SDS011;46641;48.904;9.126;2023-02-28T08:57:43;8.90;;;7.17;;
60819;SDS011;46641;48.904;9.126;2023-02-28T09:02:34;8.05;;;7.10;;
60819;SDS011;46641;48.904;9.126;2023-02-28T09:07:24;8.83;;;7.73;;
60819;SDS011;46641;48.904;9.126;2023-02-28T09:12:15;9.30;;;7.43;;
60819;SDS011;46641;48.904;9.126;2023-02-28T09:17:05;7.97;;;7.03;;
60819;SDS011;46641;48.904;9.126;2023-02-28T09:21:55;8.07;;;7.27;;
60819;SDS011;46641;48.904;9.126;2023-02-28T09:26:46;9.93;;;8.27;;
60819;SDS011;46641;48.904;9.126;2023-02-28T09:31:36;8.77;;;7.87;;
60819;SDS011;46641;48.904;9.126;2023-02-28T09:36:26;8.27;;;7.47;;
60819;SDS011;46641;48.904;9.126;2023-02-28T09:41:22;11.03;;;9.90;;
60819;SDS011;46641;48.904;9.126;2023-02-28T09:51:28;8.80;;;7.23;;
60819;SDS011;46641;48.904;9.126;2023-02-28T09:56:25;10.30;;;7.77;;
60819;SDS011;46641;48.904;9.126;2023-02-28T10:01:25;8.87;;;7.90;;
60819;SDS011;46641;48.904;9.126;2023-02-28T10:06:28;9.93;;;7.97;;
60819;SDS011;46641;48.904;9.126;2023-02-28T10:11:23;10.13;;;9.13;;
60819;SDS011;46641;48.904;9.126;2023-02-28T10:16:16;11.63;;;8.87;;
60819;SDS011;46641;48.904;9.126;2023-02-28T10:21:17;9.50;;;7.73;;
60819;SDS011;46641;48.904;9.126;2023-02-28T10:26:12;9.47;;;8.43;;
60819;SDS011;46641;48.904;9.126;2023-02-28T10:31:15;10.73;;;8.50;;
60819;SDS011;46641;48.904;9.126;2023-02-28T10:36:09;10.20;;;8.77;;
60819;SDS011;46641;48.904;9.126;2023-02-28T10:41:08;8.80;;;7.90;;
60819;SDS011;46641;48.904;9.126;2023-02-28T10:46:00;9.67;;;8.20;;
60819;SDS011;46641;48.904;9.126;2023-02-28T10:50:53;13.53;;;10.90;;
60819;SDS011;46641;48.904;9.126;2023-02-28T10:56:32;10.37;;;8.30;;
60819;SDS011;46641;48.904;9.126;2023-02-28T11:00:59;15.20;;;12.13;;
60819;SDS011;46641;48.904;9.126;2023-02-28T11:05:49;9.73;;;7.80;;
60819;SDS011;46641;48.904;9.126;2023-02-28T11:10:43;10.50;;;9.00;;
60819;SDS011;46641;48.904;9.126;2023-02-28T11:15:36;10.90;;;8.80;;
60819;SDS011;46641;48.904;9.126;2023-02-28T11:20:28;11.60;;;9.00;;
60819;SDS011;46641;48.904;9.126;2023-02-28T11:25:23;9.17;;;7.87;;
60819;SDS011;46641;48.904;9.126;2023-02-28T11:30:23;10.33;;;9.00;;
60819;SDS011;46641;48.904;9.126;2023-02-28T11:35:21;7.97;;;7.13;;
60819;SDS011;46641;48.904;9.126;2023-02-28T11:40:18;8.13;;;7.33;;
60819;SDS011;46641;48.904;9.126;2023-02-28T11:55:42;10.13;;;7.77;;
60819;SDS011;46641;48.904;9.126;2023-02-28T12:00:40;10.33;;;9.33;;
60819;SDS011;46641;48.904;9.126;2023-02-28T12:11:13;7.90;;;6.93;;
60819;SDS011;46641;48.904;9.126;2023-02-28T12:16:24;9.50;;;8.53;;
60819;SDS011;46641;48.904;9.126;2023-02-28T12:31:26;8.02;;;7.22;;
60819;SDS011;46641;48.904;9.126;2023-02-28T12:36:21;8.70;;;7.80;;
60819;SDS011;46641;48.904;9.126;2023-02-28T12:46:19;9.20;;;7.67;;
60819;SDS011;46641;48.904;9.126;2023-02-28T12:51:15;8.40;;;7.40;;
60819;SDS011;46641;48.904;9.126;2023-02-28T13:11:40;10.10;;;8.83;;
60819;SDS011;46641;48.904;9.126;2023-02-28T13:16:54;9.50;;;8.70;;
60819;SDS011;46641;48.904;9.126;2023-02-28T13:21:45;8.87;;;8.00;;
60819;SDS011;46641;48.904;9.126;2023-02-28T13:31:27;9.03;;;7.80;;
60819;SDS011;46641;48.904;9.126;2023-02-28T13:46:26;10.00;;;8.13;;
60819;SDS011;46641;48.904;9.126;2023-02-28T13:51:27;12.43;;;6.83;;
60819;SDS011;46641;48.904;9.126;2023-02-28T13:56:35;7.47;;;6.67;;
60819;SDS011;46641;48.904;9.126;2023-02-28T14:01:42;9.13;;;8.20;;
60819;SDS011;46641;48.904;9.126;2023-02-28T14:06:53;7.07;;;6.37;;
60819;SDS011;46641;48.904;9.126;2023-02-28T14:11:45;11.10;;;10.00;;
60819;SDS011;46641;48.904;9.126;2023-02-28T14:16:46;9.07;;;8.17;;
60819;SDS011;46641;48.904;9.126;2023-02-28T14:21:38;9.50;;;8.50;;
60819;SDS011;46641;48.904;9.126;2023-02-28T14:32:27;9.70;;;8.70;;
60819;SDS011;46641;48.904;9.126;2023-02-28T14:37:27;9.60;;;7.83;;
60819;SDS011;46641;48.904;9.126;2023-02-28T14:42:32;9.83;;;8.23;;
60819;SDS011;46641;48.904;9.126;2023-02-28T14:47:26;9.67;;;8.27;;
60819;SDS011;46641;48.904;9.126;2023-02-28T14:52:21;9.20;;;8.20;;
60819;SDS011;46641;48.904;9.126;2023-02-28T14:57:21;9.90;;;8.70;;
60819;SDS011;46641;48.904;9.126;2023-02-28T15:02:20;10.10;;;9.20;;
60819;SDS011;46641;48.904;9.126;2023-02-28T15:07:15;10.07;;;8.17;;
60819;SDS011;46641;48.904;9.126;2023-02-28T15:12:05;10.30;;;8.87;;
60819;SDS011;46641;48.904;9.126;2023-02-28T15:17:01;14.70;;;8.93;;
60819;SDS011;46641;48.904;9.126;2023-02-28T15:22:06;8.93;;;8.03;;
60819;SDS011;46641;48.904;9.126;2023-02-28T15:27:04;10.90;;;9.20;;
60819;SDS011;46641;48.904;9.126;2023-02-28T15:32:04;10.27;;;9.27;;
60819;SDS011;46641;48.904;9.126;2023-02-28T15:36:56;9.27;;;8.30;;
60819;SDS011;46641;48.904;9.126;2023-02-28T15:41:46;9.82;;;8.93;;
60819;SDS011;46641;48.904;9.126;2023-02-28T15:46:37;11.60;;;9.70;;
60819;SDS011;46641;48.904;9.126;2023-02-28T15:51:32;9.10;;;8.13;;
60819;SDS011;46641;48.904;9.126;2023-02-28T16:01:24;10.37;;;9.37;;
60819;SDS011;46641;48.904;9.126;2023-02-28T16:06:34;10.07;;;8.57;;
60819;SDS011;46641;48.904;9.126;2023-02-28T16:11:37;10.13;;;9.07;;
60819;SDS011;46641;48.904;9.126;2023-02-28T16:16:31;9.50;;;8.50;;
60819;SDS011;46641;48.904;9.126;2023-02-28T16:21:23;9.63;;;8.63;;
60819;SDS011;46641;48.904;9.126;2023-02-28T16:26:19;8.60;;;7.77;;
60819;SDS011;46641;48.904;9.126;2023-02-28T16:31:13;10.70;;;9.10;;
60819;SDS011;46641;48.904;9.126;2023-02-28T16:36:06;8.27;;;6.53;;
60819;SDS011;46641;48.904;9.126;2023-02-28T16:41:02;10.63;;;8.63;;
60819;SDS011;46641;48.904;9.126;2023-02-28T16:45:54;12.67;;;10.77;;
60819;SDS011;46641;48.904;9.126;2023-02-28T16:50:48;11.10;;;9.27;;
60819;SDS011;46641;48.904;9.126;2023-02-28T16:55:38;12.10;;;10.80;;
60819;SDS011;46641;48.904;9.126;2023-02-28T17:00:30;10.33;;;8.60;;
60819;SDS011;46641;48.904;9.126;2023-02-28T17:05:21;11.30;;;8.37;;
60819;SDS011;46641;48.904;9.126;2023-02-28T17:10:13;11.37;;;8.60;;
60819;SDS011;46641;48.904;9.126;2023-02-28T17:15:04;9.87;;;8.83;;
60819;SDS011;46641;48.904;9.126;2023-02-28T17:19:56;10.07;;;8.53;;
60819;SDS011;46641;48.904;9.126;2023-02-28T17:24:46;11.00;;;9.40;;
60819;SDS011;46641;48.904;9.126;2023-02-28T17:29:36;9.82;;;8.63;;
60819;SDS011;46641;48.904;9.126;2023-02-28T17:34:27;10.63;;;8.93;;
60819;SDS011;46641;48.904;9.126;2023-02-28T17:39:17;10.60;;;8.77;;
60819;SDS011;46641;48.904;9.126;2023-02-28T17:44:14;10.83;;;8.77;;
60819;SDS011;46641;48.904;9.126;2023-02-28T17:49:06;10.00;;;9.00;;
60819;SDS011;46641;48.904;9.126;2023-02-28T17:53:56;10.40;;;8.80;;
60819;SDS011;46641;48.904;9.126;2023-02-28T17:58:46;9.65;;;8.68;;
60819;SDS011;46641;48.904;9.126;2023-02-28T18:03:37;10.33;;;8.37;;
60819;SDS011;46641;48.904;9.126;2023-02-28T18:08:28;12.50;;;9.87;;
60819;SDS011;46641;48.904;9.126;2023-02-28T18:13:20;12.00;;;9.27;;
60819;SDS011;46641;48.904;9.126;2023-02-28T18:18:11;14.93;;;11.80;;
60819;SDS011;46641;48.904;9.126;2023-02-28T18:23:01;11.37;;;10.20;;
60819;SDS011;46641;48.904;9.126;2023-02-28T18:27:52;10.50;;;8.37;;
60819;SDS011;46641;48.904;9.126;2023-02-28T18:32:42;11.13;;;9.73;;
60819;SDS011;46641;48.904;9.126;2023-02-28T18:37:33;11.88;;;9.55;;
60819;SDS011;46641;48.904;9.126;2023-02-28T18:42:23;10.47;;;9.37;;
60819;SDS011;46641;48.904;9.126;2023-02-28T18:47:13;12.88;;;10.15;;
60819;SDS011;46641;48.904;9.126;2023-02-28T18:52:04;11.70;;;10.47;;
60819;SDS011;46641;48.904;9.126;2023-02-28T18:56:54;12.30;;;9.83;;
60819;SDS011;46641;48.904;9.126;2023-02-28T19:01:45;12.10;;;8.80;;
60819;SDS011;46641;48.904;9.126;2023-02-28T19:06:35;14.33;;;10.03;;
60819;SDS011;46641;48.904;9.126;2023-02-28T19:11:27;11.50;;;9.73;;
60819;SDS011;46641;48.904;9.126;2023-02-28T19:16:18;12.23;;;9.97;;
60819;SDS011;46641;48.904;9.126;2023-02-28T19:21:11;12.10;;;9.97;;
60819;SDS011;46641;48.904;9.126;2023-02-28T19:30:57;11.83;;;9.97;;
60819;SDS011;46641;48.904;9.126;2023-02-28T19:35:47;13.37;;;9.80;;
60819;SDS011;46641;48.904;9.126;2023-02-28T19:40:38;10.77;;;8.77;;
60819;SDS011;46641;48.904;9.126;2023-02-28T19:45:28;14.10;;;11.00;;
60819;SDS011;46641;48.904;9.126;2023-02-28T19:50:18;12.13;;;9.82;;
60819;SDS011;46641;48.904;9.126;2023-02-28T19:55:09;12.82;;;10.25;;
60819;SDS011;46641;48.904;9.126;2023-02-28T20:00:00;12.10;;;10.20;;
60819;SDS011;46641;48.904;9.126;2023-02-28T20:04:50;12.90;;;10.40;;
60819;SDS011;46641;48.904;9.126;2023-02-28T20:09:40;13.33;;;10.90;;
60819;SDS011;46641;48.904;9.126;2023-02-28T20:14:31;11.32;;;9.73;;
60819;SDS011;46641;48.904;9.126;2023-02-28T20:19:21;10.73;;;9.63;;
60819;SDS011;46641;48.904;9.126;2023-02-28T20:24:11;11.30;;;10.10;;
60819;SDS011;46641;48.904;9.126;2023-02-28T20:29:02;11.63;;;9.87;;
60819;SDS011;46641;48.904;9.126;2023-02-28T20:33:53;12.00;;;10.70;;
60819;SDS011;46641;48.904;9.126;2023-02-28T20:38:43;12.05;;;10.35;;
60819;SDS011;46641;48.904;9.126;2023-02-28T20:43:34;11.80;;;9.53;;
60819;SDS011;46641;48.904;9.126;2023-02-28T20:48:24;23.73;;;16.70;;
60819;SDS011;46641;48.904;9.126;2023-02-28T20:53:15;12.83;;;11.07;;
60819;SDS011;46641;48.904;9.126;2023-02-28T20:58:05;15.27;;;11.30;;
60819;SDS011;46641;48.904;9.126;2023-02-28T21:02:55;13.10;;;10.90;;
60819;SDS011;46641;48.904;9.126;2023-02-28T21:07:47;11.97;;;10.17;;
60819;SDS011;46641;48.904;9.126;2023-02-28T21:12:37;11.53;;;9.97;;
60819;SDS011;46641;48.904;9.126;2023-02-28T21:17:28;11.15;;;9.45;;
60819;SDS011;46641;48.904;9.126;2023-02-28T21:22:18;12.90;;;10.43;;
60819;SDS011;46641;48.904;9.126;2023-02-28T21:27:08;12.85;;;9.77;;
60819;SDS011;46641;48.904;9.126;2023-02-28T21:31:59;14.67;;;11.33;;
60819;SDS011;46641;48.904;9.126;2023-02-28T21:36:50;15.33;;;11.50;;
60819;SDS011;46641;48.904;9.126;2023-02-28T21:41:42;17.63;;;12.83;;
60819;SDS011;46641;48.904;9.126;2023-02-28T21:46:32;18.17;;;14.83;;
60819;SDS011;46641;48.904;9.126;2023-02-28T21:51:24;16.60;;;12.37;;
60819;SDS011;46641;48.904;9.126;2023-02-28T21:56:21;17.30;;;14.27;;
60819;SDS011;46641;48.904;9.126;2023-02-28T22:01:17;18.30;;;12.97;;
60819;SDS011;46641;48.904;9.126;2023-02-28T22:06:10;20.20;;;14.90;;
60819;SDS011;46641;48.904;9.126;2023-02-28T22:11:02;17.90;;;12.80;;
60819;SDS011;46641;48.904;9.126;2023-02-28T22:15:54;17.33;;;12.50;;
60819;SDS011;46641;48.904;9.126;2023-02-28T22:20:45;12.95;;;11.00;;
60819;SDS011;46641;48.904;9.126;2023-02-28T22:25:42;13.80;;;11.50;;
60819;SDS011;46641;48.904;9.126;2023-02-28T22:30:33;14.13;;;11.95;;
60819;SDS011;46641;48.904;9.126;2023-02-28T22:35:23;14.93;;;11.47;;
60819;SDS011;46641;48.904;9.126;2023-02-28T22:40:13;13.03;;;11.07;;
60819;SDS011;46641;48.904;9.126;2023-02-28T22:45:04;14.30;;;11.90;;
60819;SDS011;46641;48.904;9.126;2023-02-28T22:49:55;12.27;;;10.03;;
60819;SDS011;46641;48.904;9.126;2023-02-28T22:54:47;12.93;;;10.65;;
60819;SDS011;46641;48.904;9.126;2023-02-28T22:59:38;12.83;;;10.53;;
60819;SDS011;46641;48.904;9.126;2023-02-28T23:04:29;12.80;;;10.63;;
60819;SDS011;46641;48.904;9.126;2023-02-28T23:09:19;15.13;;;11.35;;
60819;SDS011;46641;48.904;9.126;2023-02-28T23:14:13;11.43;;;9.10;;
60819;SDS011;46641;48.904;9.126;2023-02-28T23:19:07;11.47;;;10.03;;
60819;SDS011;46641;48.904;9.126;2023-02-28T23:24:00;13.17;;;10.40;;
60819;SDS011;46641;48.904;9.126;2023-02-28T23:28:51;13.87;;;11.23;;
60819;SDS011;46641;48.904;9.126;2023-02-28T23:33:42;12.75;;;10.43;;
60819;SDS011;46641;48.904;9.126;2023-02-28T23:38:32;11.83;;;9.67;;
60819;SDS011;46641;48.904;9.126;2023-02-28T23:43:22;14.38;;;10.40;;
60819;SDS011;46641;48.904;9.126;2023-02-28T23:48:13;11.93;;;9.60;;
60819;SDS011;46641;48.904;9.126;2023-02-28T23:53:03;11.13;;;9.88;;
60819;SDS011;46641;48.904;9.126;2023-02-28T23:57:54;12.00;;;9.40;;
